# Tabular Observed and Forecast Hydrograph Information
#
# Location: San Joaquin River - Vernalis (VNSC1)
#
# File Generation Time: 09/02/2026 at 07:31 AM PDT
# Data Interval: 1 Hour
#
# Most Recent Date & Time of Maximum Observed: 08/31/2026 at 08:00 AM PDT
# Maximum Observed Stage: 7.49 Feet
# Maximum Observed Flow: 771 cfs
#
# Earliest Date & Time of Maximum Forecast: 09/02/2026 at 08:00 AM PDT
# Maximum Forecast Stage: 7.36 Feet
# Maximum Forecast Flow: 709 cfs
#
# OBSERVED
#
# Date & Time (Local) Stage (Feet) Flow (cfs) Trend Observed Status
# ---------------------------------------------------------------------------------
08/28/2026 07 AM PDT 7.09 588 Normal
08/28/2026 08 AM PDT 7.10 592 + Normal
08/28/2026 09 AM PDT 7.11 596 + Normal
08/28/2026 10 AM PDT 7.12 601 + Normal
08/28/2026 11 AM PDT 7.12 601 0 Normal
08/28/2026 12 PM PDT 7.13 605 + Normal
08/28/2026 01 PM PDT 7.14 609 + Normal
08/28/2026 02 PM PDT 7.12 601 - Normal
08/28/2026 03 PM PDT 7.14 609 + Normal
08/28/2026 04 PM PDT 7.13 605 - Normal
08/28/2026 05 PM PDT 7.12 601 - Normal
08/28/2026 06 PM PDT 7.13 605 + Normal
08/28/2026 07 PM PDT 7.12 601 - Normal
08/28/2026 08 PM PDT 7.16 618 + Normal
08/28/2026 09 PM PDT 7.15 614 - Normal
08/28/2026 10 PM PDT 7.15 614 0 Normal
08/28/2026 11 PM PDT 7.15 614 0 Normal
08/29/2026 12 AM PDT 7.15 614 0 Normal
08/29/2026 01 AM PDT 7.16 618 + Normal
08/29/2026 02 AM PDT 7.16 618 0 Normal
08/29/2026 03 AM PDT 7.16 618 0 Normal
08/29/2026 04 AM PDT 7.17 623 + Normal
08/29/2026 05 AM PDT 7.17 623 0 Normal
08/29/2026 06 AM PDT 7.17 623 0 Normal
08/29/2026 07 AM PDT 7.18 627 + Normal
08/29/2026 08 AM PDT 7.18 627 0 Normal
08/29/2026 09 AM PDT 7.16 618 - Normal
08/29/2026 10 AM PDT 7.19 631 + Normal
08/29/2026 11 AM PDT 7.21 640 + Normal
08/29/2026 12 PM PDT 7.20 636 - Normal
08/29/2026 01 PM PDT 7.18 627 - Normal
08/29/2026 02 PM PDT 7.18 627 0 Normal
08/29/2026 03 PM PDT 7.18 627 0 Normal
08/29/2026 04 PM PDT 7.18 627 0 Normal
08/29/2026 05 PM PDT 7.18 627 0 Normal
08/29/2026 06 PM PDT 7.16 618 - Normal
08/29/2026 07 PM PDT 7.18 627 + Normal
08/29/2026 08 PM PDT 7.21 640 + Normal
08/29/2026 09 PM PDT 7.21 640 0 Normal
08/29/2026 10 PM PDT 7.22 645 + Normal
08/29/2026 11 PM PDT 7.23 649 + Normal
08/30/2026 12 AM PDT 7.24 654 + Normal
08/30/2026 01 AM PDT 7.26 663 + Normal
08/30/2026 02 AM PDT 7.27 667 + Normal
08/30/2026 03 AM PDT 7.28 672 + Normal
08/30/2026 04 AM PDT 7.31 686 + Normal
08/30/2026 05 AM PDT 7.32 690 + Normal
08/30/2026 06 AM PDT 7.34 700 + Normal
08/30/2026 07 AM PDT 7.35 704 + Normal
08/30/2026 08 AM PDT 7.34 700 - Normal
08/30/2026 09 AM PDT 7.36 709 + Normal
08/30/2026 10 AM PDT 7.37 714 + Normal
08/30/2026 11 AM PDT 7.39 723 + Normal
08/30/2026 12 PM PDT 7.40 728 + Normal
08/30/2026 01 PM PDT 7.42 737 + Normal
08/30/2026 02 PM PDT 7.43 742 + Normal
08/30/2026 03 PM PDT 7.43 742 0 Normal
08/30/2026 04 PM PDT 7.45 752 + Normal
08/30/2026 05 PM PDT 7.43 742 - Normal
08/30/2026 06 PM PDT 7.42 737 - Normal
08/30/2026 07 PM PDT 7.43 742 + Normal
08/30/2026 08 PM PDT 7.45 752 + Normal
08/30/2026 09 PM PDT 7.46 756 + Normal
08/30/2026 10 PM PDT 7.46 756 0 Normal
08/30/2026 11 PM PDT 7.47 761 + Normal
08/31/2026 12 AM PDT 7.47 761 0 Normal
08/31/2026 01 AM PDT 7.48 766 + Normal
08/31/2026 02 AM PDT 7.48 766 0 Normal
08/31/2026 03 AM PDT 7.49 771 + Normal
08/31/2026 04 AM PDT 7.48 766 - Normal
08/31/2026 05 AM PDT 7.49 771 + Normal
08/31/2026 06 AM PDT 7.49 771 0 Normal
08/31/2026 07 AM PDT 7.49 771 0 Normal
08/31/2026 08 AM PDT 7.49 771 0 Normal
08/31/2026 09 AM PDT 7.47 761 - Normal
08/31/2026 10 AM PDT 7.48 766 + Normal
08/31/2026 11 AM PDT 7.47 761 - Normal
08/31/2026 12 PM PDT 7.44 747 - Normal
08/31/2026 01 PM PDT 7.44 747 0 Normal
08/31/2026 02 PM PDT 7.44 747 0 Normal
08/31/2026 03 PM PDT 7.44 747 0 Normal
08/31/2026 04 PM PDT 7.42 737 - Normal
08/31/2026 05 PM PDT 7.40 728 - Normal
08/31/2026 06 PM PDT 7.38 718 - Normal
08/31/2026 07 PM PDT 7.38 718 0 Normal
08/31/2026 08 PM PDT 7.34 700 - Normal
08/31/2026 09 PM PDT 7.33 695 - Normal
08/31/2026 10 PM PDT 7.32 690 - Normal
08/31/2026 11 PM PDT 7.32 690 0 Normal
09/01/2026 12 AM PDT 7.33 695 + Normal
09/01/2026 01 AM PDT 7.33 695 0 Normal
09/01/2026 02 AM PDT 7.32 690 - Normal
09/01/2026 03 AM PDT 7.32 690 0 Normal
09/01/2026 04 AM PDT 7.31 686 - Normal
09/01/2026 05 AM PDT 7.31 686 0 Normal
09/01/2026 06 AM PDT 7.32 690 + Normal
09/01/2026 07 AM PDT 7.33 695 + Normal
09/01/2026 08 AM PDT 7.33 695 0 Normal
09/01/2026 09 AM PDT 7.34 700 + Normal
09/01/2026 10 AM PDT 7.35 704 + Normal
09/01/2026 11 AM PDT 7.36 709 + Normal
09/01/2026 12 PM PDT 7.36 709 0 Normal
09/01/2026 01 PM PDT 7.35 704 - Normal
09/01/2026 02 PM PDT 7.35 704 0 Normal
09/01/2026 03 PM PDT 7.33 695 - Normal
09/01/2026 04 PM PDT 7.34 700 + Normal
09/01/2026 05 PM PDT 7.29 677 - Normal
09/01/2026 06 PM PDT 7.27 667 - Normal
09/01/2026 07 PM PDT 7.27 667 0 Normal
09/01/2026 08 PM PDT 7.28 672 + Normal
09/01/2026 09 PM PDT 7.28 672 0 Normal
09/01/2026 10 PM PDT 7.28 672 0 Normal
09/01/2026 11 PM PDT 7.31 686 + Normal
09/02/2026 12 AM PDT 7.33 695 + Normal
09/02/2026 01 AM PDT 7.34 700 + Normal
09/02/2026 02 AM PDT 7.35 704 + Normal
09/02/2026 03 AM PDT 7.36 709 + Normal
09/02/2026 04 AM PDT 7.36 709 0 Normal
09/02/2026 05 AM PDT 7.37 714 + Normal
09/02/2026 06 AM PDT 7.37 714 0 Normal
09/02/2026 07 AM PDT 7.36 709 - Normal
#
# FORECAST
#
# Date & Time (Local) Stage (Feet) Flow (cfs) Trend Forecast Status
# ---------------------------------------------------------------------------------
09/02/2026 08 AM PDT 7.36 709 Normal
09/02/2026 09 AM PDT 7.36 709 0 Normal
09/02/2026 10 AM PDT 7.36 709 0 Normal
09/02/2026 11 AM PDT 7.35 704 - Normal
09/02/2026 12 PM PDT 7.35 704 0 Normal
09/02/2026 01 PM PDT 7.35 704 0 Normal
09/02/2026 02 PM PDT 7.35 704 0 Normal
09/02/2026 03 PM PDT 7.34 700 - Normal
09/02/2026 04 PM PDT 7.34 700 0 Normal
09/02/2026 05 PM PDT 7.34 700 0 Normal
09/02/2026 06 PM PDT 7.34 700 0 Normal
09/02/2026 07 PM PDT 7.33 695 - Normal
09/02/2026 08 PM PDT 7.33 695 0 Normal
09/02/2026 09 PM PDT 7.33 695 0 Normal
09/02/2026 10 PM PDT 7.33 695 0 Normal
09/02/2026 11 PM PDT 7.32 690 - Normal
09/03/2026 12 AM PDT 7.32 690 0 Normal
09/03/2026 01 AM PDT 7.32 690 0 Normal
09/03/2026 02 AM PDT 7.32 690 0 Normal
09/03/2026 03 AM PDT 7.31 686 - Normal
09/03/2026 04 AM PDT 7.31 686 0 Normal
09/03/2026 05 AM PDT 7.31 686 0 Normal
09/03/2026 06 AM PDT 7.31 686 0 Normal
09/03/2026 07 AM PDT 7.30 681 - Normal
09/03/2026 08 AM PDT 7.30 681 0 Normal
09/03/2026 09 AM PDT 7.30 681 0 Normal
09/03/2026 10 AM PDT 7.30 681 0 Normal
09/03/2026 11 AM PDT 7.30 681 0 Normal
09/03/2026 12 PM PDT 7.30 681 0 Normal
09/03/2026 01 PM PDT 7.29 677 - Normal
09/03/2026 02 PM PDT 7.29 677 0 Normal
09/03/2026 03 PM PDT 7.29 677 0 Normal
09/03/2026 04 PM PDT 7.29 677 0 Normal
09/03/2026 05 PM PDT 7.29 677 0 Normal
09/03/2026 06 PM PDT 7.29 677 0 Normal
09/03/2026 07 PM PDT 7.29 677 0 Normal
09/03/2026 08 PM PDT 7.28 672 - Normal
09/03/2026 09 PM PDT 7.28 672 0 Normal
09/03/2026 10 PM PDT 7.28 672 0 Normal
09/03/2026 11 PM PDT 7.28 672 0 Normal
09/04/2026 12 AM PDT 7.28 672 0 Normal
09/04/2026 01 AM PDT 7.28 672 0 Normal
09/04/2026 02 AM PDT 7.28 672 0 Normal
09/04/2026 03 AM PDT 7.28 672 0 Normal
09/04/2026 04 AM PDT 7.27 667 - Normal
09/04/2026 05 AM PDT 7.27 667 0 Normal
09/04/2026 06 AM PDT 7.27 667 0 Normal
09/04/2026 07 AM PDT 7.27 667 0 Normal
09/04/2026 08 AM PDT 7.27 667 0 Normal
09/04/2026 09 AM PDT 7.27 667 0 Normal
09/04/2026 10 AM PDT 7.27 667 0 Normal
09/04/2026 11 AM PDT 7.27 667 0 Normal
09/04/2026 12 PM PDT 7.27 667 0 Normal
09/04/2026 01 PM PDT 7.27 667 0 Normal
09/04/2026 02 PM PDT 7.27 667 0 Normal
09/04/2026 03 PM PDT 7.27 667 0 Normal
09/04/2026 04 PM PDT 7.27 667 0 Normal
09/04/2026 05 PM PDT 7.26 663 - Normal
09/04/2026 06 PM PDT 7.26 663 0 Normal
09/04/2026 07 PM PDT 7.26 663 0 Normal
09/04/2026 08 PM PDT 7.26 663 0 Normal
09/04/2026 09 PM PDT 7.26 663 0 Normal
09/04/2026 10 PM PDT 7.26 663 0 Normal
09/04/2026 11 PM PDT 7.26 663 0 Normal
09/05/2026 12 AM PDT 7.26 663 0 Normal
09/05/2026 01 AM PDT 7.26 663 0 Normal
09/05/2026 02 AM PDT 7.26 663 0 Normal
09/05/2026 03 AM PDT 7.26 663 0 Normal
09/05/2026 04 AM PDT 7.26 663 0 Normal
09/05/2026 05 AM PDT 7.26 663 0 Normal
09/05/2026 06 AM PDT 7.26 663 0 Normal
09/05/2026 07 AM PDT 7.26 663 0 Normal
09/05/2026 08 AM PDT 7.26 663 0 Normal
09/05/2026 09 AM PDT 7.26 663 0 Normal
09/05/2026 10 AM PDT 7.26 663 0 Normal
09/05/2026 11 AM PDT 7.26 663 0 Normal
09/05/2026 12 PM PDT 7.26 663 0 Normal
09/05/2026 01 PM PDT 7.26 663 0 Normal
09/05/2026 02 PM PDT 7.26 663 0 Normal
09/05/2026 03 PM PDT 7.26 663 0 Normal
09/05/2026 04 PM PDT 7.26 663 0 Normal
09/05/2026 05 PM PDT 7.26 663 0 Normal
09/05/2026 06 PM PDT 7.26 663 0 Normal
09/05/2026 07 PM PDT 7.26 663 0 Normal
09/05/2026 08 PM PDT 7.26 663 0 Normal
09/05/2026 09 PM PDT 7.26 663 0 Normal
09/05/2026 10 PM PDT 7.26 663 0 Normal
09/05/2026 11 PM PDT 7.26 663 0 Normal
09/06/2026 12 AM PDT 7.26 663 0 Normal
09/06/2026 01 AM PDT 7.26 663 0 Normal
09/06/2026 02 AM PDT 7.26 663 0 Normal
09/06/2026 03 AM PDT 7.26 663 0 Normal
09/06/2026 04 AM PDT 7.26 663 0 Normal
09/06/2026 05 AM PDT 7.26 663 0 Normal
09/06/2026 06 AM PDT 7.26 663 0 Normal
09/06/2026 07 AM PDT 7.26 663 0 Normal
09/06/2026 08 AM PDT 7.26 663 0 Normal
09/06/2026 09 AM PDT 7.26 663 0 Normal
09/06/2026 10 AM PDT 7.26 663 0 Normal
09/06/2026 11 AM PDT 7.26 663 0 Normal
09/06/2026 12 PM PDT 7.26 663 0 Normal
09/06/2026 01 PM PDT 7.26 663 0 Normal
09/06/2026 02 PM PDT 7.26 663 0 Normal
09/06/2026 03 PM PDT 7.26 663 0 Normal
09/06/2026 04 PM PDT 7.26 663 0 Normal
09/06/2026 05 PM PDT 7.26 663 0 Normal
09/06/2026 06 PM PDT 7.26 663 0 Normal
09/06/2026 07 PM PDT 7.26 663 0 Normal
09/06/2026 08 PM PDT 7.26 663 0 Normal
09/06/2026 09 PM PDT 7.25 658 - Normal
09/06/2026 10 PM PDT 7.25 658 0 Normal
09/06/2026 11 PM PDT 7.25 658 0 Normal
09/07/2026 12 AM PDT 7.25 658 0 Normal
09/07/2026 01 AM PDT 7.25 658 0 Normal
09/07/2026 02 AM PDT 7.25 658 0 Normal
09/07/2026 03 AM PDT 7.25 658 0 Normal
09/07/2026 04 AM PDT 7.25 658 0 Normal
09/07/2026 05 AM PDT 7.25 658 0 Normal
#
# NOTE 1: Stages are rounded to the nearest hundredth (.01) of a foot.
# NOTE 2: Flows are rounded to the nearest (1) cfs.
# NOTE 3: Trends are determined using hourly change in unrounded stage and flow.
# NOTE 4: Maximum Values are determined using unrounded stage and flow.
|